Time;durP1;ratioP1;P1;durP2;ratioP2;P2;SDS_P1;SDS_P2;PMS_P1;PMS_P2;Temp;Humidity;BMP_temperature;BMP_pressure;BME280_temperature;BME280_humidity;BME280_pressure;Samples;Min_cycle;Max_cycle;Signal;HPM_P1;HPM_P2
2022/06/20 00:00:06;;;;;;;;;;;12.00;99.90;;;;;;5035659;28;19929;-74
2022/06/20 00:02:35;;;;;;;;;;;12.00;99.90;;;;;;5037072;28;20280;-75
2022/06/20 00:05:03;;;;;;;;;;;12.00;99.90;;;;;;5036691;28;19944;-74
2022/06/20 00:07:30;;;;;;;;;;;11.90;99.90;;;;;;5035568;28;20370;-74
2022/06/20 00:09:58;;;;;;;;;;;11.90;99.90;;;;;;5037119;28;19932;-75
2022/06/20 00:12:26;;;;;;;;;;;11.80;99.90;;;;;;5036546;28;19921;-74
2022/06/20 00:14:55;;;;;;;;;;;11.80;99.90;;;;;;5034902;28;19921;-74
2022/06/20 00:17:22;;;;;;;;;;;11.80;99.90;;;;;;5036653;28;19923;-75
2022/06/20 00:19:51;;;;;;;;;;;11.70;99.90;;;;;;5035414;28;19925;-75
2022/06/20 00:22:18;;;;;;;;;;;11.80;99.90;;;;;;5036340;28;19932;-75
2022/06/20 00:24:46;;;;;;;;;;;11.80;99.90;;;;;;5019244;28;19928;-75
2022/06/20 00:27:13;;;;;;;;;;;11.80;99.90;;;;;;5017853;28;19921;-75
2022/06/20 00:29:41;;;;;;;;;;;11.70;99.90;;;;;;5036493;28;20378;-74
2022/06/20 00:32:10;;;;;;;;;;;11.70;99.90;;;;;;5036079;28;19928;-74
2022/06/20 00:34:37;;;;;;;;;;;11.70;99.90;;;;;;5035019;28;19920;-74
2022/06/20 00:37:05;;;;;;;;;;;11.60;99.90;;;;;;5036042;28;19921;-74
2022/06/20 00:39:33;;;;;;;;;;;11.60;99.90;;;;;;5035176;28;19921;-74
2022/06/20 00:42:01;;;;;;;;;;;11.60;99.90;;;;;;5035956;28;19921;-75
2022/06/20 00:44:49;;;;;;;;;;;11.60;99.90;;;;;;5035870;28;19928;-74
2022/06/20 00:47:36;;;;;;;;;;;11.70;99.90;;;;;;5020641;28;19928;-73
2022/06/20 00:50:24;;;;;;;;;;;11.60;99.90;;;;;;5036127;28;19921;-75
2022/06/20 00:53:14;;;;;;;;;;;11.50;99.90;;;;;;5020290;28;20469;-75
2022/06/20 00:56:08;;;;;;;;;;;11.40;99.90;;;;;;5036213;28;19928;-75
2022/06/20 00:58:57;;;;;;;;;;;11.40;99.90;;;;;;5035721;28;19928;-74
2022/06/20 01:01:43;;;;;;;;;;;11.50;99.90;;;;;;5025384;28;19928;-74
2022/06/20 01:04:33;;;;;;;;;;;11.40;99.90;;;;;;5035674;28;19940;-75
2022/06/20 01:07:22;;;;;;;;;;;11.40;99.90;;;;;;5034504;28;19921;-75
2022/06/20 01:10:10;;;;;;;;;;;11.40;99.90;;;;;;5035802;28;19928;-75
2022/06/20 01:12:58;;;;;;;;;;;11.40;99.90;;;;;;5034499;28;20250;-75
2022/06/20 01:15:45;;;;;;;;;;;11.40;99.90;;;;;;5035458;28;19928;-74
2022/06/20 01:18:33;;;;;;;;;;;11.40;99.90;;;;;;5035479;28;20255;-75
2022/06/20 01:21:20;;;;;;;;;;;11.40;99.90;;;;;;5034282;28;19928;-74
2022/06/20 01:24:09;;;;;;;;;;;11.40;99.90;;;;;;5036014;28;19928;-74
2022/06/20 01:27:07;;;;;;;;;;;11.40;99.90;;;;;;5032897;28;19928;-75
2022/06/20 01:29:53;;;;;;;;;;;11.40;99.90;;;;;;5035331;28;19928;-76
2022/06/20 01:32:40;;;;;;;;;;;11.30;99.90;;;;;;5035153;28;19928;-74
2022/06/20 01:38:30;;;;;;;;;;;11.30;99.90;;;;;;5035370;28;19928;-75
2022/06/20 01:44:21;;;;;;;;;;;11.30;99.90;;;;;;5035224;28;20267;-74
2022/06/20 01:47:08;;;;;;;;;;;11.20;99.90;;;;;;5034265;28;19940;-75
2022/06/20 01:49:55;;;;;;;;;;;11.20;99.90;;;;;;5035353;28;19944;-74
2022/06/20 01:52:42;;;;;;;;;;;11.20;99.90;;;;;;5034873;28;19928;-74
2022/06/20 01:55:28;;;;;;;;;;;11.20;99.90;;;;;;5020694;28;19932;-75
2022/06/20 01:58:16;;;;;;;;;;;11.10;99.90;;;;;;5035138;28;19928;-75
2022/06/20 02:01:03;;;;;;;;;;;11.10;99.90;;;;;;5034002;28;19932;-75
2022/06/20 02:03:49;;;;;;;;;;;11.10;99.90;;;;;;5034863;28;19921;-75
2022/06/20 02:06:35;;;;;;;;;;;11.10;99.90;;;;;;5033775;28;20375;-75
2022/06/20 02:09:22;;;;;;;;;;;11.20;99.90;;;;;;5034789;28;19928;-75
2022/06/20 02:12:09;;;;;;;;;;;11.30;99.90;;;;;;5034689;28;19936;-75
2022/06/20 02:14:57;;;;;;;;;;;11.30;99.90;;;;;;5033746;28;20359;-74
2022/06/20 02:17:43;;;;;;;;;;;11.40;99.90;;;;;;5035055;28;19928;-75
2022/06/20 02:20:30;;;;;;;;;;;11.40;99.90;;;;;;5033735;28;19924;-75
2022/06/20 02:23:22;;;;;;;;;;;11.50;99.90;;;;;;5035025;28;19984;-74
2022/06/20 02:26:08;;;;;;;;;;;11.60;99.90;;;;;;5033921;28;19928;-75
2022/06/20 02:29:00;;;;;;;;;;;11.60;99.90;;;;;;5034670;28;20362;-74
2022/06/20 02:31:47;;;;;;;;;;;11.60;99.90;;;;;;5034811;28;19944;-75
2022/06/20 02:34:34;;;;;;;;;;;11.60;99.90;;;;;;5019225;28;19921;-75
2022/06/20 02:37:23;;;;;;;;;;;11.70;99.90;;;;;;5035792;28;19936;-74
2022/06/20 02:40:12;;;;;;;;;;;11.70;99.90;;;;;;5037689;28;19928;-74
2022/06/20 02:43:09;;;;;;;;;;;11.80;99.90;;;;;;5038384;28;19932;-74
2022/06/20 02:45:55;;;;;;;;;;;11.80;99.90;;;;;;5038184;28;19928;-75
2022/06/20 02:48:43;;;;;;;;;;;11.90;99.90;;;;;;5027203;28;19928;-74
2022/06/20 02:51:32;;;;;;;;;;;11.90;99.90;;;;;;5038354;28;19932;-75
2022/06/20 02:54:23;;;;;;;;;;;11.90;99.90;;;;;;5037252;28;19936;-74
2022/06/20 02:57:30;;;;;;;;;;;11.90;99.90;;;;;;5038117;28;20000;-74
2022/06/20 03:00:18;;;;;;;;;;;11.90;99.90;;;;;;5036986;28;20279;-75
2022/06/20 03:03:12;;;;;;;;;;;11.90;99.90;;;;;;5027700;28;19932;-75
2022/06/20 03:05:58;;;;;;;;;;;11.90;99.90;;;;;;5038064;28;19940;-75
2022/06/20 03:08:44;;;;;;;;;;;11.90;99.90;;;;;;5037829;28;19928;-74
2022/06/20 03:11:31;;;;;;;;;;;11.90;99.90;;;;;;5037726;28;19921;-75
2022/06/20 03:14:19;;;;;;;;;;;11.90;99.90;;;;;;5036614;28;19929;-75
2022/06/20 03:17:06;;;;;;;;;;;11.90;99.90;;;;;;5037906;28;20354;-75
2022/06/20 03:19:55;;;;;;;;;;;11.70;99.90;;;;;;5036980;28;19921;-74
2022/06/20 03:22:43;;;;;;;;;;;11.70;99.90;;;;;;5037717;28;19928;-74
2022/06/20 03:25:30;;;;;;;;;;;11.60;99.90;;;;;;5037471;28;19928;-74
2022/06/20 03:28:17;;;;;;;;;;;11.50;99.90;;;;;;5036714;28;19928;-75
2022/06/20 03:31:21;;;;;;;;;;;11.40;99.90;;;;;;5037323;28;19928;-74
2022/06/20 03:34:07;;;;;;;;;;;11.40;99.90;;;;;;5036423;28;19936;-74
2022/06/20 03:36:53;;;;;;;;;;;11.30;99.90;;;;;;5037762;28;19944;-74
2022/06/20 03:39:39;;;;;;;;;;;11.20;99.90;;;;;;5021493;28;20303;-75
2022/06/20 03:42:25;;;;;;;;;;;11.20;99.90;;;;;;5027388;28;19928;-75
2022/06/20 03:45:12;;;;;;;;;;;11.10;99.90;;;;;;5025274;28;19944;-75
2022/06/20 03:48:03;;;;;;;;;;;11.10;99.90;;;;;;5022204;28;19928;-74
2022/06/20 03:51:05;;;;;;;;;;;11.10;99.90;;;;;;5036768;28;19940;-74
2022/06/20 03:53:57;;;;;;;;;;;11.00;99.90;;;;;;5035850;28;19928;-75
2022/06/20 03:57:04;;;;;;;;;;;11.00;99.90;;;;;;5037183;28;19928;-75
2022/06/20 04:00:02;;;;;;;;;;;11.00;99.90;;;;;;5035970;28;19940;-74
2022/06/20 04:03:10;;;;;;;;;;;11.00;99.90;;;;;;5037357;28;20355;-75
2022/06/20 04:06:02;;;;;;;;;;;10.90;99.90;;;;;;5025339;28;19928;-75
2022/06/20 04:12:00;;;;;;;;;;;10.90;99.90;;;;;;5043558;28;19932;-75
2022/06/20 04:15:00;;;;;;;;;;;10.90;99.90;;;;;;5055755;28;20257;-74
2022/06/20 04:21:08;;;;;;;;;;;10.90;99.90;;;;;;5055629;28;19928;-74
2022/06/20 04:24:03;;;;;;;;;;;10.30;99.90;;;;;;5056851;28;19920;-75
2022/06/20 04:26:49;;;;;;;;;;;10.90;99.90;;;;;;5055218;28;19928;-75
2022/06/20 04:29:38;;;;;;;;;;;10.90;99.90;;;;;;5056890;28;19927;-75
2022/06/20 04:32:36;;;;;;;;;;;10.90;99.90;;;;;;5056183;28;19928;-75
2022/06/20 04:35:43;;;;;;;;;;;10.90;99.90;;;;;;5056225;28;20347;-75
2022/06/20 04:38:32;;;;;;;;;;;10.90;99.90;;;;;;5056310;28;20449;-74
2022/06/20 04:41:27;;;;;;;;;;;10.90;99.90;;;;;;5054908;28;20265;-75
2022/06/20 04:44:17;;;;;;;;;;;11.00;99.90;;;;;;5055509;28;19928;-75
2022/06/20 04:47:14;;;;;;;;;;;11.00;99.90;;;;;;5054702;28;19939;-74
2022/06/20 04:50:00;;;;;;;;;;;11.00;99.90;;;;;;5056055;28;19931;-75
2022/06/20 04:52:47;;;;;;;;;;;11.00;99.90;;;;;;5054688;28;20287;-74
2022/06/20 04:55:33;;;;;;;;;;;11.00;99.90;;;;;;5059701;28;19927;-75
2022/06/20 04:58:21;;;;;;;;;;;11.00;99.90;;;;;;5057306;28;20393;-74
2022/06/20 05:01:08;;;;;;;;;;;11.10;99.90;;;;;;5054665;28;19928;-74
2022/06/20 05:03:57;;;;;;;;;;;10.90;99.90;;;;;;5055752;28;20362;-74
2022/06/20 05:06:43;;;;;;;;;;;11.20;99.90;;;;;;5055937;28;19932;-74
2022/06/20 05:09:49;;;;;;;;;;;11.20;99.90;;;;;;5055297;28;19948;-75
2022/06/20 05:12:39;;;;;;;;;;;11.30;99.90;;;;;;5037394;28;19928;-74
2022/06/20 05:15:28;;;;;;;;;;;11.30;99.90;;;;;;5035502;28;19928;-74
2022/06/20 05:18:18;;;;;;;;;;;11.40;99.90;;;;;;5021133;28;19940;-75
2022/06/20 05:21:09;;;;;;;;;;;11.50;99.90;;;;;;5020333;28;19932;-75
2022/06/20 05:24:02;;;;;;;;;;;11.50;99.90;;;;;;5035587;28;19943;-76
2022/06/20 05:26:49;;;;;;;;;;;11.50;99.90;;;;;;5034319;28;19928;-75
2022/06/20 05:29:36;;;;;;;;;;;11.50;99.90;;;;;;5020942;28;19932;-75
2022/06/20 05:32:24;;;;;;;;;;;11.50;99.90;;;;;;5035197;28;20371;-75
2022/06/20 05:35:17;;;;;;;;;;;11.50;99.90;;;;;;5035331;28;20260;-75
2022/06/20 05:37:49;;;;;;;;;;;11.60;99.90;;;;;;5035196;28;20371;-75
2022/06/20 05:40:31;;;;;;;;;;;11.60;99.90;;;;;;5016831;28;19921;-76
2022/06/20 05:42:59;;;;;;;;;;;11.60;99.90;;;;;;5035548;28;19921;-75
2022/06/20 05:45:28;;;;;;;;;;;11.70;99.90;;;;;;5034956;28;19921;-75
2022/06/20 05:47:59;;;;;;;;;;;11.70;99.90;;;;;;5033931;28;19921;-74
2022/06/20 05:50:33;;;;;;;;;;;11.70;99.90;;;;;;5035197;28;19921;-74
2022/06/20 05:53:02;;;;;;;;;;;11.80;99.90;;;;;;5016560;28;19921;-74
2022/06/20 05:55:38;;;;;;;;;;;11.90;99.90;;;;;;5035034;28;19928;-76
2022/06/20 05:58:08;;;;;;;;;;;11.90;99.90;;;;;;5035137;28;19928;-74
2022/06/20 06:00:35;;;;;;;;;;;12.00;99.90;;;;;;5033989;28;19921;-75
2022/06/20 06:03:11;;;;;;;;;;;12.00;99.90;;;;;;5017850;28;20391;-75
2022/06/20 06:05:40;;;;;;;;;;;12.10;99.90;;;;;;5017699;28;19928;-74
2022/06/20 06:08:19;;;;;;;;;;;12.10;99.90;;;;;;5033880;28;19921;-75
2022/06/20 06:11:16;;;;;;;;;;;12.20;99.90;;;;;;5020306;28;19928;-74
2022/06/20 06:13:49;;;;;;;;;;;12.20;99.90;;;;;;5037015;28;19920;-75
2022/06/20 06:19:13;;;;;;;;;;;12.30;99.90;;;;;;5038721;28;20267;-75
2022/06/20 06:21:42;;;;;;;;;;;12.30;99.90;;;;;;5037720;28;19925;-75
2022/06/20 06:24:11;;;;;;;;;;;12.30;99.90;;;;;;5021489;28;19928;-75
2022/06/20 06:26:40;;;;;;;;;;;12.40;99.90;;;;;;5037846;28;20259;-74
2022/06/20 06:29:13;;;;;;;;;;;12.40;99.90;;;;;;5021366;28;19921;-76
2022/06/20 06:31:42;;;;;;;;;;;12.50;99.90;;;;;;5038908;28;19921;-75
2022/06/20 06:34:19;;;;;;;;;;;12.50;99.90;;;;;;5037415;28;19928;-75
2022/06/20 06:36:55;;;;;;;;;;;12.60;99.90;;;;;;5021222;28;19921;-74
2022/06/20 06:39:42;;;;;;;;;;;12.60;99.90;;;;;;5038171;28;19920;-74
2022/06/20 06:42:16;;;;;;;;;;;12.10;99.90;;;;;;4986518;28;19921;-76
2022/06/20 06:44:45;;;;;;;;;;;12.70;99.90;;;;;;5038422;28;19921;-75
2022/06/20 06:47:17;;;;;;;;;;;12.80;99.90;;;;;;5036982;28;19921;-75
2022/06/20 06:49:50;;;;;;;;;;;12.80;99.90;;;;;;5020912;28;19969;-76
2022/06/20 06:52:27;;;;;;;;;;;12.90;99.90;;;;;;5021198;28;19921;-75
2022/06/20 06:54:54;;;;;;;;;;;12.90;99.90;;;;;;5019665;28;19928;-76
2022/06/20 06:57:22;;;;;;;;;;;13.00;99.90;;;;;;5020607;28;19925;-75
2022/06/20 07:00:15;;;;;;;;;;;13.00;99.90;;;;;;5019669;28;19921;-76
2022/06/20 07:02:45;;;;;;;;;;;13.00;99.90;;;;;;5038104;28;19932;-75
2022/06/20 07:05:18;;;;;;;;;;;13.10;99.90;;;;;;5020462;28;19996;-77
2022/06/20 07:07:48;;;;;;;;;;;13.10;99.90;;;;;;5035938;28;20267;-75
2022/06/20 07:10:18;;;;;;;;;;;12.60;99.90;;;;;;5020487;28;20275;-76
2022/06/20 07:12:48;;;;;;;;;;;13.20;99.90;;;;;;5036581;28;19921;-76
2022/06/20 07:15:17;;;;;;;;;;;13.20;99.90;;;;;;5037982;28;20374;-76
2022/06/20 07:17:49;;;;;;;;;;;13.20;99.90;;;;;;5037749;28;19936;-75
2022/06/20 07:20:17;;;;;;;;;;;13.30;99.90;;;;;;5019528;28;19928;-75
2022/06/20 07:22:45;;;;;;;;;;;13.30;99.90;;;;;;5037502;28;19928;-75
2022/06/20 07:25:15;;;;;;;;;;;13.20;99.90;;;;;;5036226;28;19924;-75
2022/06/20 07:27:47;;;;;;;;;;;13.30;99.90;;;;;;5036686;28;19921;-75
2022/06/20 07:30:17;;;;;;;;;;;13.40;99.90;;;;;;5037709;28;19921;-75
2022/06/20 07:32:48;;;;;;;;;;;13.50;99.90;;;;;;5019157;28;20375;-75
2022/06/20 07:35:21;;;;;;;;;;;13.50;99.30;;;;;;5037294;28;19925;-76
2022/06/20 07:38:04;;;;;;;;;;;13.50;99.90;;;;;;5020422;28;19928;-75
2022/06/20 07:40:36;;;;;;;;;;;13.60;99.70;;;;;;5036189;28;19924;-76
2022/06/20 07:43:15;;;;;;;;;;;13.20;99.10;;;;;;5037029;28;19925;-76
2022/06/20 07:45:46;;;;;;;;;;;13.60;99.20;;;;;;5036743;28;19925;-76
2022/06/20 07:48:23;;;;;;;;;;;13.60;99.30;;;;;;5018363;28;19977;-76
2022/06/20 07:50:55;;;;;;;;;;;13.80;99.90;;;;;;5036786;28;19921;-75
2022/06/20 07:53:38;;;;;;;;;;;13.70;98.30;;;;;;5035760;28;19997;-75
2022/06/20 07:56:20;;;;;;;;;;;13.90;97.50;;;;;;5036804;28;19921;-75
2022/06/20 07:58:52;;;;;;;;;;;13.90;95.70;;;;;;5036824;28;19921;-74
2022/06/20 08:01:27;;;;;;;;;;;14.00;95.70;;;;;;5035505;28;19935;-75
2022/06/20 08:04:06;;;;;;;;;;;14.00;96.00;;;;;;5036505;28;20275;-75
2022/06/20 08:06:39;;;;;;;;;;;14.00;96.90;;;;;;5018035;28;20427;-75
2022/06/20 08:09:12;;;;;;;;;;;14.10;94.20;;;;;;5019368;28;19921;-75
2022/06/20 08:11:50;;;;;;;;;;;14.10;93.60;;;;;;5036066;28;19920;-75
2022/06/20 08:14:17;;;;;;;;;;;14.20;95.20;;;;;;5018219;28;19928;-75
2022/06/20 08:16:46;;;;;;;;;;;14.20;94.50;;;;;;5018888;28;19921;-75
2022/06/20 08:19:14;;;;;;;;;;;14.20;94.00;;;;;;5018928;28;19928;-75
2022/06/20 08:21:43;;;;;;;;;;;14.30;95.30;;;;;;5035292;28;20026;-76
2022/06/20 08:24:20;;;;;;;;;;;14.30;96.20;;;;;;5036624;28;19921;-75
2022/06/20 08:27:04;;;;;;;;;;;14.40;96.10;;;;;;5035447;28;19928;-75
2022/06/20 08:29:34;;;;;;;;;;;14.40;96.30;;;;;;5036995;28;20282;-76
2022/06/20 08:32:28;;;;;;;;;;;14.50;94.90;;;;;;5036210;28;19921;-75
2022/06/20 08:35:11;;;;;;;;;;;14.60;95.30;;;;;;5031286;28;19921;-75
2022/06/20 08:37:41;;;;;;;;;;;14.70;94.50;;;;;;5018797;28;19939;-75
2022/06/20 08:40:29;;;;;;;;;;;14.70;94.00;;;;;;5035144;28;19944;-75
2022/06/20 08:43:15;;;;;;;;;;;14.80;94.60;;;;;;5036038;28;19921;-74
2022/06/20 08:46:33;;;;;;;;;;;14.90;94.30;;;;;;5035965;28;19928;-75
2022/06/20 08:49:19;;;;;;;;;;;14.90;95.00;;;;;;4956558;29;20350;-74
2022/06/20 08:52:06;;;;;;;;;;;15.00;94.30;;;;;;5030716;28;19921;-74
2022/06/20 08:54:45;;;;;;;;;;;15.10;94.40;;;;;;5034929;28;19921;-73
2022/06/20 08:57:16;;;;;;;;;;;15.30;92.80;;;;;;5036051;28;19932;-73
2022/06/20 08:59:56;;;;;;;;;;;15.30;93.10;;;;;;5035055;28;19921;-74
2022/06/20 09:02:23;;;;;;;;;;;15.40;93.10;;;;;;5035089;28;19948;-74
2022/06/20 09:05:00;;;;;;;;;;;15.40;93.10;;;;;;5035400;28;20262;-73
2022/06/20 09:07:31;;;;;;;;;;;15.40;92.70;;;;;;5017176;28;19921;-73
2022/06/20 09:10:04;;;;;;;;;;;15.40;93.50;;;;;;5035261;28;19921;-74
2022/06/20 09:12:34;;;;;;;;;;;15.50;93.00;;;;;;5035193;28;19928;-73
2022/06/20 09:15:20;;;;;;;;;;;15.40;93.40;;;;;;5033889;28;19921;-73
2022/06/20 09:17:54;;;;;;;;;;;15.40;93.50;;;;;;5018371;28;19924;-73
2022/06/20 09:20:22;;;;;;;;;;;15.50;93.30;;;;;;5034145;28;19921;-75
2022/06/20 09:23:11;;;;;;;;;;;15.50;93.00;;;;;;5027384;28;20367;-76
2022/06/20 09:25:38;;;;;;;;;;;15.50;91.20;;;;;;5002053;28;19921;-76
2022/06/20 09:28:23;;;;;;;;;;;15.60;91.60;;;;;;5025861;28;20279;-75
2022/06/20 09:30:57;;;;;;;;;;;15.70;91.70;;;;;;5030325;28;19921;-75
2022/06/20 09:33:30;;;;;;;;;;;15.60;92.40;;;;;;5033954;28;19928;-74
2022/06/20 09:36:00;;;;;;;;;;;15.60;91.80;;;;;;5017404;28;19932;-76
2022/06/20 09:38:28;;;;;;;;;;;15.80;91.80;;;;;;5017380;28;19928;-73
2022/06/20 09:41:04;;;;;;;;;;;15.80;91.50;;;;;;5015974;28;19921;-74
2022/06/20 09:43:41;;;;;;;;;;;15.80;91.20;;;;;;5034499;28;19921;-74
2022/06/20 09:46:23;;;;;;;;;;;15.90;90.40;;;;;;5015020;28;19932;-73
2022/06/20 09:48:50;;;;;;;;;;;16.00;92.00;;;;;;5034019;28;19921;-72
2022/06/20 09:51:26;;;;;;;;;;;16.00;91.50;;;;;;5034370;28;19921;-74
2022/06/20 09:54:02;;;;;;;;;;;16.20;90.70;;;;;;5033718;28;19925;-74
2022/06/20 09:56:52;;;;;;;;;;;16.40;89.40;;;;;;5032082;28;19921;-74
2022/06/20 09:59:31;;;;;;;;;;;16.50;90.20;;;;;;4997102;28;19921;-74
2022/06/20 10:02:13;;;;;;;;;;;16.60;89.60;;;;;;5014628;28;20364;-74
2022/06/20 10:04:59;;;;;;;;;;;16.70;90.00;;;;;;5014043;28;19922;-74
2022/06/20 10:07:35;;;;;;;;;;;16.60;90.00;;;;;;5013242;28;19928;-73
2022/06/20 10:10:05;;;;;;;;;;;16.60;88.30;;;;;;5032781;28;19928;-75
2022/06/20 10:12:37;;;;;;;;;;;16.70;90.10;;;;;;5033154;28;19921;-74
2022/06/20 10:15:14;;;;;;;;;;;16.70;90.10;;;;;;5032878;28;20394;-74
2022/06/20 10:17:47;;;;;;;;;;;16.80;90.50;;;;;;5016903;28;19928;-75
2022/06/20 10:20:16;;;;;;;;;;;17.00;89.00;;;;;;5033167;28;19921;-76
2022/06/20 10:22:49;;;;;;;;;;;17.10;85.90;;;;;;5034237;28;19921;-75
2022/06/20 10:25:26;;;;;;;;;;;17.20;87.60;;;;;;5034245;28;19921;-74
2022/06/20 10:28:08;;;;;;;;;;;17.10;90.20;;;;;;5015421;28;19932;-76
2022/06/20 10:30:36;;;;;;;;;;;17.20;90.40;;;;;;5008574;28;19932;-80
2022/06/20 10:33:10;;;;;;;;;;;17.30;90.00;;;;;;5030837;28;19925;-74
2022/06/20 10:35:40;;;;;;;;;;;17.40;87.40;;;;;;5033185;28;19921;-75
2022/06/20 10:38:12;;;;;;;;;;;17.40;88.00;;;;;;5016623;28;19921;-72
2022/06/20 10:40:47;;;;;;;;;;;17.60;87.10;;;;;;5031849;28;20020;-74
2022/06/20 10:43:23;;;;;;;;;;;17.80;87.10;;;;;;5016683;28;19925;-76
2022/06/20 10:45:57;;;;;;;;;;;18.00;84.80;;;;;;5032851;28;19935;-76
2022/06/20 10:48:43;;;;;;;;;;;17.90;84.80;;;;;;5007529;28;20372;-76
2022/06/20 10:51:19;;;;;;;;;;;17.90;86.00;;;;;;4995568;28;19936;-75
2022/06/20 10:53:47;;;;;;;;;;;17.90;86.90;;;;;;5011834;28;19921;-75
2022/06/20 10:56:23;;;;;;;;;;;17.90;88.00;;;;;;5014296;28;19925;-75
2022/06/20 10:59:05;;;;;;;;;;;18.00;87.80;;;;;;4999588;28;19929;-74
2022/06/20 11:01:33;;;;;;;;;;;18.20;85.10;;;;;;5016578;28;19925;-74
2022/06/20 11:04:18;;;;;;;;;;;18.20;83.90;;;;;;5017779;28;19921;-74
2022/06/20 11:07:05;;;;;;;;;;;18.40;84.70;;;;;;4999434;28;19922;-75
2022/06/20 11:09:35;;;;;;;;;;;18.50;85.10;;;;;;5000582;28;19928;-76
2022/06/20 11:12:03;;;;;;;;;;;18.60;85.80;;;;;;5017364;28;19925;-74
2022/06/20 11:14:30;;;;;;;;;;;18.50;83.70;;;;;;5015621;28;19944;-75
2022/06/20 11:17:03;;;;;;;;;;;18.30;82.30;;;;;;5018121;28;19928;-76
2022/06/20 11:19:37;;;;;;;;;;;18.00;83.00;;;;;;5017081;28;19948;-76
2022/06/20 11:22:10;;;;;;;;;;;17.70;84.00;;;;;;5017710;28;19925;-75
2022/06/20 11:24:43;;;;;;;;;;;17.70;85.60;;;;;;5000483;28;20245;-75
2022/06/20 11:27:14;;;;;;;;;;;18.00;85.10;;;;;;4999883;28;19929;-75
2022/06/20 11:29:48;;;;;;;;;;;18.20;84.70;;;;;;5017716;28;19921;-75
2022/06/20 11:32:19;;;;;;;;;;;18.50;84.70;;;;;;5000454;28;20283;-75
2022/06/20 11:34:47;;;;;;;;;;;18.80;83.40;;;;;;4999163;28;19929;-75
2022/06/20 11:37:20;;;;;;;;;;;19.00;82.00;;;;;;5017848;28;19925;-75
2022/06/20 11:39:53;;;;;;;;;;;19.10;81.70;;;;;;4999862;28;20406;-73
2022/06/20 11:42:39;;;;;;;;;;;19.00;82.00;;;;;;5017646;28;20237;-75
2022/06/20 11:45:22;;;;;;;;;;;19.10;81.20;;;;;;5017289;28;19944;-78
2022/06/20 11:47:52;;;;;;;;;;;19.10;82.10;;;;;;5016275;28;19928;-75
2022/06/20 11:50:30;;;;;;;;;;;19.10;82.30;;;;;;5000108;28;19921;-74
2022/06/20 11:53:21;;;;;;;;;;;19.00;81.00;;;;;;4983548;28;20382;-74
2022/06/20 11:55:51;;;;;;;;;;;18.90;81.30;;;;;;5004071;28;19936;-75
2022/06/20 11:58:25;;;;;;;;;;;18.80;79.50;;;;;;5016716;28;19921;-75
2022/06/20 12:01:23;;;;;;;;;;;18.80;82.80;;;;;;5015202;28;20367;-75
2022/06/20 12:03:59;;;;;;;;;;;19.00;81.00;;;;;;5000136;28;19921;-75
2022/06/20 12:06:36;;;;;;;;;;;19.10;79.10;;;;;;4981595;28;19925;-75
2022/06/20 12:09:16;;;;;;;;;;;19.20;81.00;;;;;;4998969;28;19933;-75
2022/06/20 12:11:43;;;;;;;;;;;19.30;79.00;;;;;;5015417;28;19930;-75
2022/06/20 12:14:14;;;;;;;;;;;19.20;80.40;;;;;;5015383;28;19928;-75
2022/06/20 12:17:00;;;;;;;;;;;19.40;80.10;;;;;;5017438;28;20344;-75
2022/06/20 12:25:12;;;;;;;;;;;19.50;79.20;;;;;;5017280;28;19921;-75
2022/06/20 12:27:40;;;;;;;;;;;19.60;80.90;;;;;;4982327;28;20383;-75
2022/06/20 12:30:11;;;;;;;;;;;19.60;80.30;;;;;;5016479;28;19921;-75
2022/06/20 12:32:40;;;;;;;;;;;19.60;79.70;;;;;;5016770;28;19940;-75
2022/06/20 12:35:11;;;;;;;;;;;19.50;79.00;;;;;;5015997;28;19921;-76
2022/06/20 12:37:43;;;;;;;;;;;19.50;79.80;;;;;;5016900;28;19928;-75
2022/06/20 12:40:10;;;;;;;;;;;19.50;79.40;;;;;;4998170;28;19921;-75
2022/06/20 12:42:43;;;;;;;;;;;19.60;80.80;;;;;;5016259;28;20272;-75
2022/06/20 12:45:22;;;;;;;;;;;19.60;80.80;;;;;;5016307;28;19921;-75
2022/06/20 12:47:55;;;;;;;;;;;19.70;80.10;;;;;;5015076;28;20245;-75
2022/06/20 12:50:52;;;;;;;;;;;19.70;79.40;;;;;;5016535;28;20275;-75
2022/06/20 12:53:22;;;;;;;;;;;19.70;79.90;;;;;;4930131;28;19933;-75
2022/06/20 12:55:49;;;;;;;;;;;19.80;80.90;;;;;;4998893;28;19928;-75
2022/06/20 12:58:32;;;;;;;;;;;20.00;80.80;;;;;;4998731;28;20340;-76
2022/06/20 13:01:09;;;;;;;;;;;20.10;79.60;;;;;;4997799;28;19921;-75
2022/06/20 13:03:49;;;;;;;;;;;20.20;77.70;;;;;;5016023;28;19944;-75
2022/06/20 13:06:24;;;;;;;;;;;20.30;78.60;;;;;;4997802;28;20353;-75
2022/06/20 13:08:55;;;;;;;;;;;20.40;80.00;;;;;;5015675;28;20268;-75
2022/06/20 13:11:38;;;;;;;;;;;20.50;78.90;;;;;;5010288;28;19936;-75
2022/06/20 13:14:49;;;;;;;;;;;20.50;78.00;;;;;;5033625;28;20267;-76
2022/06/20 13:17:32;;;;;;;;;;;19.40;77.30;;;;;;5035748;28;19921;-75
2022/06/20 13:20:08;;;;;;;;;;;20.40;76.60;;;;;;5033712;28;19921;-76
2022/06/20 13:22:52;;;;;;;;;;;20.70;75.40;;;;;;5035440;28;19924;-76
2022/06/20 13:25:21;;;;;;;;;;;20.90;76.80;;;;;;5034507;28;19928;-76
2022/06/20 13:27:52;;;;;;;;;;;21.90;76.90;;;;;;5034311;28;19921;-76
2022/06/20 13:30:36;;;;;;;;;;;23.30;72.80;;;;;;5035566;28;19932;-76
2022/06/20 13:33:24;;;;;;;;;;;24.60;70.20;;;;;;5033215;28;20340;-76
2022/06/20 13:35:55;;;;;;;;;;;26.30;69.50;;;;;;5035615;28;19920;-74
2022/06/20 13:38:28;;;;;;;;;;;27.10;64.10;;;;;;5034674;28;20351;-76
2022/06/20 13:41:23;;;;;;;;;;;27.70;64.30;;;;;;5033658;28;19925;-76
2022/06/20 13:43:57;;;;;;;;;;;28.40;63.80;;;;;;5033358;28;19921;-74
2022/06/20 13:46:30;;;;;;;;;;;29.20;61.20;;;;;;5034370;28;19928;-76
2022/06/20 13:49:02;;;;;;;;;;;29.50;58.50;;;;;;5035423;28;20351;-74
2022/06/20 13:51:51;;;;;;;;;;;29.70;60.10;;;;;;5035424;28;20272;-74
2022/06/20 13:54:23;;;;;;;;;;;30.50;60.30;;;;;;5033981;28;20367;-74
2022/06/20 13:56:53;;;;;;;;;;;30.70;57.10;;;;;;5034975;28;20263;-75
2022/06/20 13:59:23;;;;;;;;;;;30.60;56.40;;;;;;5033594;28;20236;-75
2022/06/20 14:01:56;;;;;;;;;;;30.50;56.70;;;;;;5034467;28;19921;-74
2022/06/20 14:04:25;;;;;;;;;;;31.00;58.10;;;;;;5034526;28;19921;-75
2022/06/20 14:06:57;;;;;;;;;;;31.40;56.20;;;;;;5033829;28;19921;-74
2022/06/20 14:09:29;;;;;;;;;;;32.00;56.50;;;;;;5035255;28;20293;-77
2022/06/20 14:12:00;;;;;;;;;;;32.50;54.30;;;;;;5034015;28;20279;-74
2022/06/20 14:14:28;;;;;;;;;;;32.70;54.10;;;;;;5033751;28;19921;-75
2022/06/20 14:16:58;;;;;;;;;;;33.20;56.20;;;;;;5034089;28;19925;-74
2022/06/20 14:19:25;;;;;;;;;;;33.60;54.80;;;;;;5032991;28;19925;-75
2022/06/20 14:21:57;;;;;;;;;;;33.70;52.70;;;;;;5034735;28;20347;-74
2022/06/20 14:24:27;;;;;;;;;;;33.80;51.50;;;;;;5035171;28;20363;-75
2022/06/20 14:27:02;;;;;;;;;;;33.70;52.30;;;;;;5033065;28;19921;-74
2022/06/20 14:29:38;;;;;;;;;;;33.70;51.40;;;;;;5034697;28;19921;-75
2022/06/20 14:32:08;;;;;;;;;;;33.70;51.70;;;;;;5035145;28;19921;-74
2022/06/20 14:37:50;;;;;;;;;;;33.40;50.90;;;;;;5038743;28;19943;-75
2022/06/20 14:40:30;;;;;;;;;;;33.70;49.00;;;;;;5037692;28;19925;-75
2022/06/20 14:42:57;;;;;;;;;;;33.50;51.20;;;;;;5038844;28;20362;-75
2022/06/20 14:45:27;;;;;;;;;;;33.50;50.90;;;;;;5037395;28;19921;-74
2022/06/20 14:47:55;;;;;;;;;;;33.90;49.50;;;;;;5037448;28;19928;-75
2022/06/20 14:50:25;;;;;;;;;;;33.80;49.50;;;;;;5038361;28;19928;-75
2022/06/20 14:53:01;;;;;;;;;;;33.80;50.70;;;;;;5037021;28;19921;-75
2022/06/20 14:55:39;;;;;;;;;;;34.30;51.30;;;;;;5037223;28;20267;-75
2022/06/20 14:58:06;;;;;;;;;;;34.80;49.40;;;;;;5037266;28;19921;-75
2022/06/20 15:00:46;;;;;;;;;;;35.00;49.50;;;;;;5036092;28;19940;-74
2022/06/20 15:03:21;;;;;;;;;;;34.80;46.60;;;;;;5038161;28;19920;-74
2022/06/20 15:05:57;;;;;;;;;;;34.40;47.20;;;;;;5037609;28;20229;-75
2022/06/20 15:08:37;;;;;;;;;;;33.40;49.10;;;;;;5036754;28;19921;-74
2022/06/20 15:11:23;;;;;;;;;;;33.30;50.00;;;;;;5032354;28;20252;-75
2022/06/20 15:13:57;;;;;;;;;;;33.40;49.20;;;;;;5017043;28;19921;-75
2022/06/20 15:16:31;;;;;;;;;;;33.70;48.50;;;;;;5001404;28;19922;-75
2022/06/20 15:19:08;;;;;;;;;;;33.80;48.50;;;;;;5018333;28;19921;-75
2022/06/20 15:21:44;;;;;;;;;;;34.00;48.50;;;;;;5016747;28;19933;-75
2022/06/20 15:24:24;;;;;;;;;;;34.10;47.90;;;;;;5018376;28;19921;-75
2022/06/20 15:27:10;;;;;;;;;;;33.90;49.90;;;;;;4999599;28;19940;-75
2022/06/20 15:29:45;;;;;;;;;;;34.50;48.50;;;;;;5017600;28;20271;-75
2022/06/20 15:32:30;;;;;;;;;;;34.50;48.40;;;;;;5017810;28;19922;-74
2022/06/20 15:35:13;;;;;;;;;;;34.50;49.00;;;;;;5016487;28;19932;-75
2022/06/20 15:37:43;;;;;;;;;;;34.60;46.90;;;;;;5017825;28;20351;-75
2022/06/20 15:40:22;;;;;;;;;;;34.10;47.20;;;;;;5016506;28;19944;-75
2022/06/20 15:42:50;;;;;;;;;;;34.40;48.60;;;;;;5000285;28;19922;-74
2022/06/20 15:45:21;;;;;;;;;;;33.60;48.20;;;;;;5016160;28;19922;-74
2022/06/20 15:48:08;;;;;;;;;;;33.40;48.20;;;;;;5016466;28;19928;-75